createdAt,value
2018-09-03T00:00:04.032Z,19.98
2018-09-03T00:02:32.218Z,21.30
2018-09-03T00:05:00.658Z,16.77
2018-09-03T00:07:29.061Z,18.57
2018-09-03T00:09:57.569Z,15.53
2018-09-03T00:12:25.980Z,17.40
2018-09-03T00:14:54.457Z,15.85
2018-09-03T00:17:22.904Z,17.77
2018-09-03T00:19:51.517Z,19.32
2018-09-03T00:22:19.932Z,17.52
2018-09-03T00:24:48.377Z,15.80
2018-09-03T00:27:16.901Z,15.70
2018-09-03T00:29:45.385Z,15.72
2018-09-03T00:32:19.351Z,15.65
2018-09-03T00:34:53.056Z,17.00
2018-09-03T00:37:26.809Z,16.87
2018-09-03T00:40:00.634Z,16.73
2018-09-03T00:42:34.477Z,18.00
2018-09-03T00:45:08.116Z,17.48
2018-09-03T00:47:36.267Z,17.35
2018-09-03T00:50:05.081Z,17.32
2018-09-03T00:52:33.519Z,17.48
2018-09-03T00:55:02.048Z,16.50
2018-09-03T00:57:30.550Z,19.30
2018-09-03T00:59:59.048Z,17.10
2018-09-03T01:02:27.501Z,15.83
2018-09-03T01:04:55.678Z,14.23
2018-09-03T01:07:24.181Z,16.45
2018-09-03T01:09:52.624Z,17.98
2018-09-03T01:12:21.078Z,19.48
2018-09-03T01:14:49.533Z,17.70
2018-09-03T01:17:17.953Z,19.52
2018-09-03T01:19:46.561Z,16.85
2018-09-03T01:22:15.005Z,19.23
2018-09-03T01:24:43.456Z,17.85
2018-09-03T01:27:11.869Z,16.00
2018-09-03T01:29:40.339Z,20.02
2018-09-03T01:32:08.817Z,19.67
2018-09-03T01:34:37.297Z,15.95
2018-09-03T01:37:05.437Z,19.05
2018-09-03T01:39:33.897Z,18.45
2018-09-03T01:42:02.424Z,17.23
2018-09-03T01:44:30.835Z,17.62
2018-09-03T01:46:59.306Z,17.70
2018-09-03T01:49:27.721Z,14.75
2018-09-03T01:51:56.172Z,19.42
2018-09-03T01:54:24.717Z,16.30
2018-09-03T01:56:53.138Z,20.37
2018-09-03T01:59:21.605Z,18.57
2018-09-03T02:01:50.049Z,17.98
2018-09-03T02:04:18.462Z,18.92
2018-09-03T02:06:47.009Z,16.67
2018-09-03T02:09:15.441Z,20.90
2018-09-03T02:11:43.924Z,25.55
2018-09-03T02:14:12.321Z,29.75
2018-09-03T02:16:41.092Z,21.50
2018-09-03T02:19:09.527Z,30.37
2018-09-03T02:21:37.997Z,25.40
2018-09-03T02:24:06.160Z,27.80
2018-09-03T02:26:34.680Z,32.35
2018-09-03T02:29:03.084Z,42.43
2018-09-03T02:31:31.645Z,43.87
2018-09-03T02:34:00.041Z,32.60
2018-09-03T02:36:28.496Z,33.63
2018-09-03T02:38:56.897Z,44.73
2018-09-03T02:41:25.337Z,37.73
2018-09-03T02:43:53.770Z,56.00
2018-09-03T02:46:22.309Z,24.37
2018-09-03T02:48:50.765Z,56.00
2018-09-03T02:51:19.201Z,35.08
2018-09-03T02:53:47.617Z,37.20
2018-09-03T02:56:16.089Z,20.52
2018-09-03T02:58:44.543Z,17.20
2018-09-03T03:01:13.129Z,21.05
2018-09-03T03:03:41.620Z,31.77
2018-09-03T03:06:12.165Z,14.65
2018-09-03T03:08:41.608Z,22.82
2018-09-03T03:11:10.056Z,91.75
2018-09-03T03:13:38.449Z,70.85
2018-09-03T03:16:06.923Z,40.55
2018-09-03T03:18:35.044Z,53.95
2018-09-03T03:21:03.896Z,39.92
2018-09-03T03:23:32.316Z,42.48
2018-09-03T03:26:00.748Z,49.95
2018-09-03T03:28:29.193Z,27.27
2018-09-03T03:30:57.613Z,18.30
2018-09-03T03:33:26.049Z,29.23
2018-09-03T03:35:54.509Z,27.58
2018-09-03T03:38:22.694Z,30.52
2018-09-03T03:40:51.120Z,29.02
2018-09-03T03:43:19.248Z,25.10
2018-09-03T03:45:47.680Z,41.02
2018-09-03T03:48:16.153Z,19.87
2018-09-03T03:50:44.560Z,30.27
2018-09-03T03:53:13.040Z,28.05
2018-09-03T03:55:41.513Z,25.35
2018-09-03T03:58:09.644Z,44.90
2018-09-03T04:00:38.160Z,31.55
2018-09-03T04:03:06.849Z,53.95
2018-09-03T04:05:35.295Z,44.53
2018-09-03T04:08:03.769Z,24.20
2018-09-03T04:10:32.184Z,28.15
2018-09-03T04:13:04.605Z,13.13
2018-09-03T04:15:33.625Z,26.62
2018-09-03T04:18:02.792Z,17.27
2018-09-03T04:20:31.205Z,11.43
2018-09-03T04:22:59.341Z,15.08
2018-09-03T04:25:27.732Z,24.35
2018-09-03T04:27:56.601Z,22.17
2018-09-03T04:30:25.131Z,19.12
2018-09-03T04:32:54.337Z,15.13
2018-09-03T04:35:22.852Z,22.73
2018-09-03T04:37:51.325Z,11.25
2018-09-03T04:40:19.747Z,22.82
2018-09-03T04:42:48.181Z,9.58
2018-09-03T04:45:16.609Z,10.65
2018-09-03T04:47:45.033Z,5.87
2018-09-03T04:50:13.448Z,5.87
2018-09-03T04:52:42.112Z,10.90
2018-09-03T04:55:10.524Z,12.47
2018-09-03T04:57:38.864Z,45.05
2018-09-03T05:00:07.620Z,14.40
2018-09-03T05:02:36.095Z,14.10
2018-09-03T05:05:04.229Z,10.40
2018-09-03T05:07:32.750Z,6.47
2018-09-03T05:10:01.165Z,7.00
2018-09-03T05:12:29.581Z,5.67
2018-09-03T05:14:57.787Z,4.17
2018-09-03T05:17:26.239Z,4.10
2018-09-03T05:19:54.721Z,5.05
2018-09-03T05:22:23.124Z,5.12
2018-09-03T05:24:51.653Z,9.58
2018-09-03T05:27:20.124Z,5.05
2018-09-03T05:29:48.613Z,13.50
2018-09-03T05:32:17.309Z,12.28
2018-09-03T05:34:45.888Z,12.73
2018-09-03T05:37:14.333Z,9.28
2018-09-03T05:39:42.772Z,22.15
2018-09-03T05:42:11.181Z,9.00
2018-09-03T05:44:39.609Z,7.10
2018-09-03T05:47:08.017Z,5.47
2018-09-03T05:49:36.179Z,5.17
2018-09-03T05:52:04.599Z,4.92
2018-09-03T05:54:33.040Z,4.62
2018-09-03T05:57:01.456Z,10.18
2018-09-03T05:59:29.950Z,5.45
2018-09-03T06:01:58.744Z,5.85
2018-09-03T06:04:27.249Z,6.95
2018-09-03T06:06:55.392Z,6.15
2018-09-03T06:09:23.524Z,10.45
2018-09-03T06:11:51.950Z,13.58
2018-09-03T06:14:20.452Z,13.00
2018-09-03T06:16:48.872Z,29.30
2018-09-03T06:19:17.313Z,40.65
2018-09-03T06:21:45.864Z,45.58
2018-09-03T06:24:14.499Z,26.23
2018-09-03T06:26:42.922Z,28.35
2018-09-03T06:29:12.002Z,32.17
2018-09-03T06:31:40.256Z,7.28
2018-09-03T06:34:08.833Z,12.68
2018-09-03T06:36:37.969Z,26.00
2018-09-03T06:39:07.875Z,20.30
2018-09-03T06:41:36.376Z,10.82
2018-09-03T06:44:04.842Z,15.20
2018-09-03T06:46:33.253Z,25.30
2018-09-03T06:49:01.729Z,34.13
2018-09-03T06:51:30.169Z,20.50
2018-09-03T06:53:58.618Z,16.73
2018-09-03T06:56:27.047Z,11.20
2018-09-03T06:58:55.143Z,12.10
2018-09-03T07:01:23.653Z,8.73
2018-09-03T07:03:52.401Z,10.03
2018-09-03T07:06:20.861Z,16.93
2018-09-03T07:08:49.296Z,11.12
2018-09-03T07:11:17.448Z,10.13
2018-09-03T07:13:46.000Z,11.53
2018-09-03T07:16:14.240Z,11.45
2018-09-03T07:18:42.721Z,11.53
2018-09-03T07:21:11.120Z,10.00
2018-09-03T07:23:39.787Z,9.40
2018-09-03T07:26:07.935Z,11.55
2018-09-03T07:28:36.340Z,10.65
2018-09-03T07:31:04.778Z,13.03
2018-09-03T07:33:33.509Z,10.95
2018-09-03T07:36:01.961Z,12.60
2018-09-03T07:38:30.372Z,15.13
2018-09-03T07:40:58.822Z,12.37
2018-09-03T07:43:27.231Z,10.30
2018-09-03T07:45:55.700Z,10.00
2018-09-03T07:48:23.922Z,10.70
2018-09-03T07:50:52.375Z,10.15
2018-09-03T07:53:20.861Z,8.83
2018-09-03T07:55:49.369Z,10.32
2018-09-03T07:58:17.753Z,8.58
2018-09-03T08:00:46.289Z,6.55
2018-09-03T08:03:14.712Z,8.80
2018-09-03T08:05:43.121Z,6.08
2018-09-03T08:08:11.524Z,7.20
2018-09-03T08:10:39.981Z,6.05
2018-09-03T08:13:08.249Z,4.80
2018-09-03T08:15:36.679Z,4.40
2018-09-03T08:18:05.141Z,4.70
2018-09-03T08:20:33.561Z,6.20
2018-09-03T08:23:01.966Z,5.40
2018-09-03T08:25:30.528Z,5.20
2018-09-03T08:27:58.631Z,9.43
2018-09-03T08:30:27.055Z,5.75
2018-09-03T08:32:55.456Z,5.92
2018-09-03T08:35:24.041Z,6.58
2018-09-03T08:37:52.462Z,5.80
2018-09-03T08:40:20.912Z,5.67
2018-09-03T08:42:49.453Z,4.50
2018-09-03T08:45:17.868Z,5.10
2018-09-03T08:47:46.351Z,3.42
2018-09-03T08:50:14.809Z,5.37
2018-09-03T08:52:42.956Z,3.42
2018-09-03T08:55:11.357Z,2.70
2018-09-03T08:57:39.928Z,3.42
2018-09-03T09:00:08.613Z,3.92
2018-09-03T09:02:37.041Z,3.77
2018-09-03T09:05:05.793Z,4.17
2018-09-03T09:07:34.266Z,3.33
2018-09-03T09:10:02.757Z,3.60
2018-09-03T09:12:31.192Z,3.60
2018-09-03T09:14:59.684Z,4.20
2018-09-03T09:17:28.171Z,2.45
2018-09-03T09:19:56.617Z,3.25
2018-09-03T09:22:25.024Z,2.70
2018-09-03T09:24:53.539Z,2.40
2018-09-03T09:27:22.096Z,2.02
2018-09-03T09:29:50.676Z,1.60
2018-09-03T09:32:19.143Z,1.77
2018-09-03T09:34:47.727Z,2.17
2018-09-03T09:37:16.212Z,2.37
2018-09-03T09:39:44.660Z,1.70
2018-09-03T09:42:13.121Z,1.62
2018-09-03T09:44:41.548Z,1.92
2018-09-03T09:47:10.001Z,1.62
2018-09-03T09:49:38.450Z,1.50
2018-09-03T09:52:06.894Z,1.77
2018-09-03T09:54:35.340Z,1.82
2018-09-03T09:57:03.802Z,1.62
2018-09-03T09:59:32.453Z,1.60
2018-09-03T10:02:00.909Z,2.75
2018-09-03T10:04:29.341Z,2.77
2018-09-03T10:06:57.793Z,1.60
2018-09-03T10:09:26.208Z,2.90
2018-09-03T10:11:54.646Z,1.75
2018-09-03T10:14:23.208Z,1.95
2018-09-03T10:16:51.688Z,3.02
2018-09-03T10:19:20.105Z,5.53
2018-09-03T10:21:48.521Z,3.00
2018-09-03T10:24:17.129Z,1.72
2018-09-03T10:26:45.609Z,2.50
2018-09-03T10:29:13.796Z,2.75
2018-09-03T10:31:42.300Z,3.15
2018-09-03T10:34:10.824Z,3.30
2018-09-03T10:36:39.318Z,3.10
2018-09-03T10:39:08.252Z,2.98
2018-09-03T10:41:36.711Z,2.55
2018-09-03T10:44:05.184Z,3.08
2018-09-03T10:46:33.602Z,2.22
2018-09-03T10:49:02.356Z,3.72
2018-09-03T10:51:30.776Z,2.27
2018-09-03T10:53:59.408Z,2.30
2018-09-03T10:56:27.517Z,2.30
2018-09-03T10:58:56.032Z,3.98
2018-09-03T11:01:24.481Z,2.40
2018-09-03T11:03:52.959Z,3.58
2018-09-03T11:06:21.386Z,2.40
2018-09-03T11:08:49.973Z,2.10
2018-09-03T11:11:18.432Z,2.12
2018-09-03T11:13:46.887Z,2.30
2018-09-03T11:16:15.301Z,1.72
2018-09-03T11:18:43.424Z,2.33
2018-09-03T11:21:11.925Z,2.12
2018-09-03T11:23:40.313Z,1.82
2018-09-03T11:26:08.750Z,1.52
2018-09-03T11:28:37.270Z,1.75
2018-09-03T11:31:05.666Z,2.40
2018-09-03T11:33:34.135Z,1.80
2018-09-03T11:36:02.616Z,1.92
2018-09-03T11:38:31.086Z,1.45
2018-09-03T11:40:59.572Z,1.50
2018-09-03T11:43:27.997Z,1.62
2018-09-03T11:45:56.428Z,1.67
2018-09-03T11:48:24.521Z,1.47
2018-09-03T11:50:53.199Z,1.57
2018-09-03T11:53:21.636Z,1.60
2018-09-03T11:55:50.120Z,1.32
2018-09-03T11:58:18.561Z,1.95
2018-09-03T12:00:46.709Z,1.30
2018-09-03T12:03:15.121Z,1.07
2018-09-03T12:05:43.845Z,1.37
2018-09-03T12:08:12.292Z,1.17
2018-09-03T12:10:40.750Z,1.27
2018-09-03T12:13:08.888Z,1.30
2018-09-03T12:15:43.431Z,1.15
2018-09-03T12:18:11.882Z,1.17
2018-09-03T12:20:40.463Z,1.32
2018-09-03T12:23:08.892Z,1.70
2018-09-03T12:25:37.047Z,1.37
2018-09-03T12:28:05.532Z,1.20
2018-09-03T12:30:33.980Z,1.60
2018-09-03T12:33:02.439Z,1.30
2018-09-03T12:35:30.886Z,1.20
2018-09-03T12:37:59.336Z,1.20
2018-09-03T12:40:27.774Z,1.52
2018-09-03T12:42:56.235Z,2.75
2018-09-03T12:45:29.904Z,2.60
2018-09-03T12:47:58.373Z,4.10
2018-09-03T12:50:26.528Z,1.57
2018-09-03T12:52:54.990Z,2.60
2018-09-03T12:55:23.454Z,1.10
2018-09-03T12:57:51.912Z,1.32
2018-09-03T13:00:21.180Z,1.00
2018-09-03T13:02:49.948Z,1.22
2018-09-03T13:05:19.594Z,1.47
2018-09-03T13:07:47.731Z,1.30
2018-09-03T13:10:16.168Z,0.93
2018-09-03T13:12:44.645Z,1.70
2018-09-03T13:15:13.070Z,1.95
2018-09-03T13:17:41.573Z,1.30
2018-09-03T13:20:10.056Z,1.47
2018-09-03T13:22:38.484Z,1.47
2018-09-03T13:25:06.965Z,0.82
2018-09-03T13:27:35.431Z,1.37
2018-09-03T13:30:04.082Z,1.50
2018-09-03T13:32:32.499Z,1.00
2018-09-03T13:35:00.988Z,1.02
2018-09-03T13:37:29.320Z,1.10
2018-09-03T13:39:57.433Z,1.30
2018-09-03T13:42:26.037Z,1.15
2018-09-03T13:44:54.513Z,1.12
2018-09-03T13:47:23.129Z,1.22
2018-09-03T13:49:51.565Z,1.30
2018-09-03T13:52:19.764Z,1.22
2018-09-03T13:54:48.227Z,1.80
2018-09-03T13:57:16.768Z,1.15
2018-09-03T13:59:45.198Z,2.30
2018-09-03T14:02:13.637Z,1.92
2018-09-03T14:04:42.059Z,1.10
2018-09-03T14:07:10.557Z,2.17
2018-09-03T14:09:39.057Z,1.37
2018-09-03T14:12:08.782Z,2.25
2018-09-03T14:14:37.240Z,2.30
2018-09-03T14:17:06.029Z,1.30
2018-09-03T14:19:34.433Z,1.15
2018-09-03T14:22:02.567Z,1.15
2018-09-03T14:24:30.989Z,1.10
2018-09-03T14:26:59.469Z,3.95
2018-09-03T14:29:27.882Z,1.30
2018-09-03T14:31:56.377Z,1.30
2018-09-03T14:34:24.817Z,1.35
2018-09-03T14:36:53.313Z,1.40
2018-09-03T14:39:21.717Z,1.50
2018-09-03T14:41:50.192Z,1.05
2018-09-03T14:44:18.603Z,21.50
2018-09-03T14:46:47.048Z,1.20
2018-09-03T14:49:15.472Z,1.05
2018-09-03T14:51:43.928Z,1.40
2018-09-03T14:54:12.409Z,1.22
2018-09-03T14:56:41.278Z,1.65
2018-09-03T14:59:09.706Z,1.15
2018-09-03T15:01:38.172Z,1.20
2018-09-03T15:04:06.961Z,1.30
2018-09-03T15:06:35.419Z,1.22
2018-09-03T15:09:05.232Z,2.60
2018-09-03T15:11:33.709Z,1.55
2018-09-03T15:14:02.261Z,1.37
2018-09-03T15:16:33.029Z,1.60
2018-09-03T15:19:03.139Z,1.20
2018-09-03T15:21:32.142Z,1.10
2018-09-03T15:24:00.557Z,1.77
2018-09-03T15:26:29.523Z,1.00
2018-09-03T15:28:57.957Z,1.65
2018-09-03T15:31:26.536Z,1.65
2018-09-03T15:33:54.998Z,1.45
2018-09-03T15:36:23.638Z,1.50
2018-09-03T15:38:52.090Z,1.32
2018-09-03T15:41:20.668Z,1.20
2018-09-03T15:43:49.121Z,1.40
2018-09-03T15:46:17.572Z,1.37
2018-09-03T15:48:46.069Z,1.80
2018-09-03T15:51:14.196Z,1.55
2018-09-03T15:53:42.877Z,1.57
2018-09-03T15:56:11.342Z,6.08
2018-09-03T15:58:39.776Z,1.60
2018-09-03T16:01:08.251Z,3.30
2018-09-03T16:03:36.701Z,1.22
2018-09-03T16:06:05.505Z,1.60
2018-09-03T16:08:33.942Z,2.95
2018-09-03T16:11:02.352Z,2.37
2018-09-03T16:13:30.800Z,2.00
2018-09-03T16:15:59.358Z,2.75
2018-09-03T16:18:27.496Z,1.50
2018-09-03T16:20:56.029Z,1.72
2018-09-03T16:23:24.392Z,2.58
2018-09-03T16:25:52.856Z,2.42
2018-09-03T16:28:21.285Z,1.67
2018-09-03T16:30:49.736Z,2.00
2018-09-03T16:33:18.197Z,2.05
2018-09-03T16:35:46.636Z,1.40
2018-09-03T16:38:15.118Z,1.60
2018-09-03T16:40:43.565Z,1.92
2018-09-03T16:43:12.048Z,1.57
2018-09-03T16:45:40.506Z,2.58
2018-09-03T16:48:08.975Z,1.77
2018-09-03T16:50:37.421Z,1.98
2018-09-03T16:53:05.991Z,1.57
2018-09-03T16:55:34.445Z,1.50
2018-09-03T16:58:02.857Z,4.25
2018-09-03T17:00:31.334Z,1.72
2018-09-03T17:02:59.746Z,1.30
2018-09-03T17:05:28.400Z,1.67
2018-09-03T17:07:56.902Z,2.55
2018-09-03T17:10:25.320Z,1.95
2018-09-03T17:12:53.474Z,2.37
2018-09-03T17:15:22.052Z,2.75
2018-09-03T17:17:50.459Z,1.90
2018-09-03T17:20:18.960Z,1.67
2018-09-03T17:22:47.353Z,4.17
2018-09-03T17:25:15.914Z,1.95
2018-09-03T17:27:44.349Z,2.42
2018-09-03T17:31:15.813Z,1.37
2018-09-03T17:33:44.268Z,1.57
2018-09-03T17:36:12.372Z,1.80
2018-09-03T17:38:40.949Z,1.77
2018-09-03T17:41:09.486Z,2.58
2018-09-03T17:43:38.000Z,2.02
2018-09-03T17:46:06.465Z,1.87
2018-09-03T17:48:34.921Z,2.02
2018-09-03T17:51:03.478Z,1.65
2018-09-03T17:53:31.889Z,2.12
2018-09-03T17:56:00.045Z,1.92
2018-09-03T17:58:28.753Z,1.80
2018-09-03T18:00:57.316Z,1.62
2018-09-03T18:03:25.515Z,1.72
2018-09-03T18:05:54.037Z,3.05
2018-09-03T18:08:22.260Z,6.95
2018-09-03T18:10:50.802Z,1.92
2018-09-03T18:13:19.257Z,2.52
2018-09-03T18:15:47.708Z,2.25
2018-09-03T18:18:16.352Z,2.00
2018-09-03T18:20:44.832Z,2.10
2018-09-03T18:23:13.314Z,1.75
2018-09-03T18:25:41.875Z,2.45
2018-09-03T18:28:10.349Z,2.50
2018-09-03T18:30:38.887Z,2.92
2018-09-03T18:33:07.343Z,2.10
2018-09-03T18:35:35.851Z,3.40
2018-09-03T18:38:04.341Z,2.52
2018-09-03T18:40:32.776Z,2.42
2018-09-03T18:43:01.264Z,1.95
2018-09-03T18:45:29.709Z,2.00
2018-09-03T18:47:58.125Z,2.20
2018-09-03T18:50:26.268Z,5.12
2018-09-03T18:52:54.757Z,1.98
2018-09-03T18:55:22.900Z,2.70
2018-09-03T18:57:51.329Z,2.47
2018-09-03T19:00:19.510Z,3.65
2018-09-03T19:02:47.919Z,3.27
2018-09-03T19:05:16.365Z,2.22
2018-09-03T19:07:44.472Z,2.87
2018-09-03T19:10:12.921Z,3.75
2018-09-03T19:12:42.411Z,3.85
2018-09-03T19:15:10.592Z,3.15
2018-09-03T19:17:39.007Z,3.55
2018-09-03T19:20:07.537Z,3.45
2018-09-03T19:22:36.085Z,3.27
2018-09-03T19:25:04.680Z,4.45
2018-09-03T19:27:33.207Z,3.60
2018-09-03T19:30:01.669Z,5.17
2018-09-03T19:32:30.109Z,4.70
2018-09-03T19:34:58.538Z,4.78
2018-09-03T19:37:26.684Z,6.60
2018-09-03T19:39:55.416Z,10.03
2018-09-03T19:42:23.872Z,9.50
2018-09-03T19:44:52.340Z,7.83
2018-09-03T19:47:20.869Z,6.65
2018-09-03T19:49:49.281Z,8.10
2018-09-03T19:52:17.931Z,6.25
2018-09-03T19:54:46.384Z,7.40
2018-09-03T19:57:14.988Z,6.90
2018-09-03T19:59:43.472Z,7.87
2018-09-03T20:02:11.636Z,9.88
2018-09-03T20:04:40.056Z,10.78
2018-09-03T20:07:08.192Z,9.43
2018-09-03T20:09:36.660Z,10.45
2018-09-03T20:12:05.559Z,9.03
2018-09-03T20:14:34.301Z,8.33
2018-09-03T20:17:02.957Z,10.82
2018-09-03T20:19:31.388Z,8.15
2018-09-03T20:21:59.822Z,10.55
2018-09-03T20:24:28.523Z,8.83
2018-09-03T20:26:57.037Z,11.93
2018-09-03T20:29:25.473Z,8.90
2018-09-03T20:31:54.000Z,10.38
2018-09-03T20:34:22.419Z,8.58
2018-09-03T20:36:50.956Z,11.30
2018-09-03T20:39:19.491Z,10.30
2018-09-03T20:41:47.942Z,9.40
2018-09-03T20:44:16.414Z,10.82
2018-09-03T20:46:44.553Z,10.55
2018-09-03T20:49:12.653Z,10.08
2018-09-03T20:51:40.833Z,10.55
2018-09-03T20:54:09.479Z,11.97
2018-09-03T20:56:37.908Z,10.10
2018-09-03T20:59:06.456Z,11.63
2018-09-03T21:01:34.972Z,9.38
2018-09-03T21:04:03.548Z,10.18
2018-09-03T21:06:31.987Z,13.43
2018-09-03T21:09:00.437Z,11.38
2018-09-03T21:11:28.916Z,9.55
2018-09-03T21:13:57.357Z,10.90
2018-09-03T21:16:25.784Z,11.22
2018-09-03T21:18:54.304Z,7.53
2018-09-03T21:21:22.979Z,8.53
2018-09-03T21:23:51.517Z,10.53
2018-09-03T21:26:19.933Z,8.55
2018-09-03T21:28:48.459Z,8.65
2018-09-03T21:31:17.053Z,8.48
2018-09-03T21:33:45.493Z,9.13
2018-09-03T21:36:13.921Z,8.68
2018-09-03T21:38:42.100Z,9.55
2018-09-03T21:41:10.913Z,10.23
2018-09-03T21:43:39.072Z,8.33
2018-09-03T21:46:07.726Z,8.90
2018-09-03T21:48:36.189Z,10.40
2018-09-03T21:51:04.596Z,8.25
2018-09-03T21:53:33.048Z,9.30
2018-09-03T21:56:01.992Z,9.65
2018-09-03T21:58:30.481Z,9.23
2018-09-03T22:00:58.941Z,9.93
2018-09-03T22:03:27.852Z,9.93
2018-09-03T22:05:56.879Z,11.57
2018-09-03T22:08:25.632Z,7.83
2018-09-03T22:10:54.044Z,7.37
2018-09-03T22:13:22.505Z,7.58
2018-09-03T22:15:50.925Z,8.03
2018-09-03T22:18:19.422Z,8.53
2018-09-03T22:20:47.848Z,8.33
2018-09-03T22:23:16.349Z,7.78
2018-09-03T22:25:45.089Z,7.58
2018-09-03T22:28:13.537Z,7.22
2018-09-03T22:30:41.972Z,10.53
2018-09-03T22:33:10.392Z,7.35
2018-09-03T22:35:38.899Z,7.37
2018-09-03T22:38:06.997Z,8.18
2018-09-03T22:40:35.453Z,9.78
2018-09-03T22:43:03.898Z,9.40
2018-09-03T22:45:32.357Z,10.43
2018-09-03T22:48:00.777Z,11.33
2018-09-03T22:50:29.239Z,10.38
2018-09-03T22:52:57.721Z,10.45
2018-09-03T22:55:26.148Z,11.73
2018-09-03T22:57:54.613Z,10.30
2018-09-03T23:00:23.077Z,12.18
2018-09-03T23:02:51.512Z,11.68
2018-09-03T23:05:19.635Z,11.88
2018-09-03T23:07:48.045Z,9.88
2018-09-03T23:10:16.493Z,12.18
2018-09-03T23:12:44.926Z,13.18
2018-09-03T23:15:13.388Z,12.20
2018-09-03T23:17:41.830Z,12.47
2018-09-03T23:20:10.317Z,12.55
2018-09-03T23:22:38.720Z,13.43
2018-09-03T23:25:07.219Z,12.13
2018-09-03T23:27:35.643Z,15.58
2018-09-03T23:30:04.149Z,13.28
2018-09-03T23:32:32.553Z,12.10
2018-09-03T23:35:01.023Z,15.23
2018-09-03T23:37:29.470Z,13.08
2018-09-03T23:39:57.945Z,15.70
2018-09-03T23:42:26.376Z,15.78
2018-09-03T23:44:54.921Z,16.82
2018-09-03T23:47:23.365Z,15.80
2018-09-03T23:49:51.843Z,16.15
2018-09-03T23:52:20.297Z,15.98
2018-09-03T23:54:48.768Z,16.87
2018-09-03T23:57:16.911Z,16.70
2018-09-03T23:59:45.388Z,17.90
